createdAt,value
2023-05-05T00:01:20.702Z,20.91
2023-05-05T00:03:47.500Z,20.87
2023-05-05T00:06:14.709Z,20.89
2023-05-05T00:08:41.901Z,20.92
2023-05-05T00:11:08.644Z,20.88
2023-05-05T00:13:35.620Z,20.89
2023-05-05T00:16:03.982Z,20.80
2023-05-05T00:18:30.720Z,20.88
2023-05-05T00:20:57.262Z,20.88
2023-05-05T00:23:23.848Z,20.89
2023-05-05T00:25:50.434Z,20.86
2023-05-05T00:28:16.990Z,20.84
2023-05-05T00:30:43.805Z,20.79
2023-05-05T00:33:10.393Z,20.79
2023-05-05T00:35:37.106Z,20.80
2023-05-05T00:38:04.164Z,20.78
2023-05-05T00:40:31.059Z,20.82
2023-05-05T00:42:59.583Z,20.82
2023-05-05T00:45:26.273Z,20.82
2023-05-05T00:47:56.962Z,20.80
2023-05-05T00:50:31.819Z,20.83
2023-05-05T00:53:03.760Z,20.79
2023-05-05T00:55:31.765Z,20.78
2023-05-05T00:57:59.237Z,20.77
2023-05-05T01:00:26.598Z,20.74
2023-05-05T01:02:53.659Z,20.78
2023-05-05T01:05:23.614Z,20.78
2023-05-05T01:08:17.427Z,20.74
2023-05-05T01:10:57.561Z,20.68
2023-05-05T01:13:48.427Z,20.77
2023-05-05T01:16:21.006Z,20.75
2023-05-05T01:19:02.183Z,20.71
2023-05-05T01:21:46.750Z,20.73
2023-05-05T01:24:34.976Z,20.75
2023-05-05T01:27:38.390Z,20.75
2023-05-05T01:30:29.778Z,20.75
2023-05-05T01:33:03.916Z,20.72
2023-05-05T01:35:50.149Z,20.72
2023-05-05T01:38:22.356Z,20.72
2023-05-05T01:40:54.502Z,20.71
2023-05-05T01:43:23.259Z,20.71
2023-05-05T01:45:50.862Z,20.70
2023-05-05T01:48:19.571Z,20.69
2023-05-05T01:50:48.372Z,20.67
2023-05-05T01:53:18.159Z,20.68
2023-05-05T01:55:47.464Z,20.70
2023-05-05T01:58:16.043Z,20.68
2023-05-05T02:00:44.057Z,20.71
2023-05-05T02:03:13.647Z,20.68
2023-05-05T02:05:42.008Z,20.68
2023-05-05T02:08:09.807Z,20.71
2023-05-05T02:10:40.879Z,20.71
2023-05-05T02:13:10.530Z,20.71
2023-05-05T02:15:39.393Z,20.71
2023-05-05T02:18:07.609Z,20.73
2023-05-05T02:20:37.414Z,20.69
2023-05-05T02:23:05.842Z,20.65
2023-05-05T02:25:38.488Z,20.71
2023-05-05T02:28:09.617Z,20.69
2023-05-05T02:30:39.120Z,20.68
2023-05-05T02:33:11.742Z,20.67
2023-05-05T02:35:41.058Z,20.68
2023-05-05T02:38:17.273Z,20.68
2023-05-05T02:40:46.703Z,20.63
2023-05-05T02:43:18.425Z,20.66
2023-05-05T02:45:45.219Z,20.53
2023-05-05T02:48:13.083Z,20.63
2023-05-05T02:50:39.864Z,20.61
2023-05-05T02:53:06.572Z,20.59
2023-05-05T02:55:45.468Z,20.62
2023-05-05T02:58:29.009Z,20.53
2023-05-05T03:01:19.341Z,20.56
2023-05-05T03:04:06.350Z,20.56
2023-05-05T03:06:42.743Z,20.51
2023-05-05T03:09:18.530Z,20.53
2023-05-05T03:11:51.036Z,20.49
2023-05-05T03:14:19.858Z,20.48
2023-05-05T03:16:48.432Z,20.48
2023-05-05T03:19:18.488Z,20.48
2023-05-05T03:21:45.467Z,20.45
2023-05-05T03:24:17.707Z,20.48
2023-05-05T03:26:46.246Z,20.47
2023-05-05T03:29:14.163Z,20.48
2023-05-05T03:31:41.127Z,20.50
2023-05-05T03:34:08.320Z,20.44
2023-05-05T03:36:35.978Z,20.48
2023-05-05T03:39:02.590Z,20.46
2023-05-05T03:41:29.173Z,20.43
2023-05-05T03:43:55.739Z,20.46
2023-05-05T03:46:22.303Z,20.44
2023-05-05T03:48:48.917Z,20.45
2023-05-05T03:51:15.669Z,20.47
2023-05-05T03:53:42.276Z,20.42
2023-05-05T03:56:09.083Z,20.49
2023-05-05T03:58:35.613Z,20.47
2023-05-05T04:01:02.237Z,20.43
2023-05-05T04:03:28.869Z,20.39
2023-05-05T04:05:55.914Z,20.45
2023-05-05T04:08:22.601Z,20.45
2023-05-05T04:10:49.191Z,20.45
2023-05-05T04:13:15.824Z,20.41
2023-05-05T04:15:46.504Z,20.42
2023-05-05T04:18:13.340Z,20.45
2023-05-05T04:20:40.334Z,20.45
2023-05-05T04:23:06.879Z,20.37
2023-05-05T04:25:33.899Z,20.43
2023-05-05T04:28:00.580Z,20.42
2023-05-05T04:30:27.326Z,20.41
2023-05-05T04:32:53.940Z,20.43
2023-05-05T04:35:20.680Z,20.42
2023-05-05T04:37:47.249Z,20.43
2023-05-05T04:40:13.858Z,20.44
2023-05-05T04:42:40.506Z,20.41
2023-05-05T04:45:08.527Z,20.32
2023-05-05T04:47:39.456Z,20.37
2023-05-05T04:50:07.326Z,20.43
2023-05-05T04:52:34.193Z,20.42
2023-05-05T04:55:01.276Z,20.43
2023-05-05T04:57:27.879Z,20.34
2023-05-05T04:59:54.451Z,20.40
2023-05-05T05:02:21.124Z,20.41
2023-05-05T05:04:47.888Z,20.40
2023-05-05T05:07:17.324Z,20.35
2023-05-05T05:09:43.880Z,20.39
2023-05-05T05:12:10.558Z,20.39
2023-05-05T05:14:40.390Z,20.41
2023-05-05T05:17:07.101Z,20.39
2023-05-05T05:19:33.949Z,20.41
2023-05-05T05:22:00.677Z,20.46
2023-05-05T05:24:27.226Z,20.46
2023-05-05T05:26:54.054Z,20.47
2023-05-05T05:29:20.767Z,20.54
2023-05-05T05:31:47.341Z,20.52
2023-05-05T05:34:13.987Z,20.60
2023-05-05T05:36:40.690Z,20.58
2023-05-05T05:39:07.243Z,20.66
2023-05-05T05:41:33.833Z,20.61
2023-05-05T05:44:00.512Z,20.67
2023-05-05T05:46:27.026Z,20.68
2023-05-05T05:48:53.645Z,20.69
2023-05-05T05:51:20.210Z,20.76
2023-05-05T05:53:46.793Z,20.71
2023-05-05T05:56:13.349Z,20.69
2023-05-05T05:58:40.635Z,20.76
2023-05-05T06:01:07.274Z,20.81
2023-05-05T06:03:34.209Z,20.79
2023-05-05T06:06:01.013Z,20.88
2023-05-05T06:08:27.627Z,20.88
2023-05-05T06:10:54.204Z,20.88
2023-05-05T06:13:21.444Z,20.97
2023-05-05T06:15:48.108Z,20.99
2023-05-05T06:18:14.728Z,20.97
2023-05-05T06:20:41.414Z,21.03
2023-05-05T06:23:07.998Z,21.05
2023-05-05T06:25:34.613Z,21.08
2023-05-05T06:28:01.932Z,21.09
2023-05-05T06:30:28.582Z,21.17
2023-05-05T06:32:55.251Z,21.21
2023-05-05T06:35:22.386Z,21.24
2023-05-05T06:37:49.018Z,21.21
2023-05-05T06:40:15.666Z,21.22
2023-05-05T06:42:42.270Z,21.22
2023-05-05T06:45:09.146Z,21.16
2023-05-05T06:47:36.378Z,21.20
2023-05-05T06:50:03.789Z,21.18
2023-05-05T06:52:30.427Z,21.20
2023-05-05T06:54:56.954Z,21.19
2023-05-05T06:57:23.684Z,21.23
2023-05-05T06:59:50.225Z,21.19
2023-05-05T07:02:16.839Z,21.22
2023-05-05T07:04:44.062Z,21.26
2023-05-05T07:07:10.631Z,21.28
2023-05-05T07:09:37.226Z,21.26
2023-05-05T07:12:04.015Z,21.28
2023-05-05T07:14:30.784Z,21.29
2023-05-05T07:16:57.330Z,21.29
2023-05-05T07:19:23.955Z,21.30
2023-05-05T07:21:50.574Z,21.32
2023-05-05T07:24:17.164Z,21.31
2023-05-05T07:26:44.052Z,21.38
2023-05-05T07:29:10.609Z,21.36
2023-05-05T07:31:37.190Z,21.43
2023-05-05T07:34:03.733Z,21.37
2023-05-05T07:36:30.451Z,21.44
2023-05-05T07:38:57.131Z,21.48
2023-05-05T07:41:23.772Z,21.45
2023-05-05T07:43:50.323Z,21.51
2023-05-05T07:46:17.839Z,21.54
2023-05-05T07:48:44.517Z,21.52
2023-05-05T07:51:11.082Z,21.60
2023-05-05T07:53:37.729Z,21.59
2023-05-05T07:56:04.454Z,21.57
2023-05-05T07:58:31.070Z,21.59
2023-05-05T08:00:57.719Z,21.56
2023-05-05T08:03:24.865Z,21.58
2023-05-05T08:05:54.649Z,21.63
2023-05-05T08:08:24.939Z,21.63
2023-05-05T08:10:53.208Z,21.67
2023-05-05T08:13:20.221Z,21.69
2023-05-05T08:15:46.925Z,21.74
2023-05-05T08:18:14.471Z,21.70
2023-05-05T08:20:41.220Z,21.78
2023-05-05T08:23:07.864Z,21.77
2023-05-05T08:25:34.432Z,21.72
2023-05-05T08:28:01.157Z,21.76
2023-05-05T08:30:27.819Z,21.72
2023-05-05T08:32:55.127Z,21.68
2023-05-05T08:35:22.289Z,21.73
2023-05-05T08:37:50.584Z,21.64
2023-05-05T08:40:17.279Z,21.65
2023-05-05T08:42:46.437Z,21.67
2023-05-05T08:45:13.165Z,21.65
2023-05-05T08:47:39.900Z,21.64
2023-05-05T08:50:10.091Z,21.64
2023-05-05T08:52:41.371Z,21.64
2023-05-05T08:55:10.798Z,21.66
2023-05-05T08:57:46.236Z,21.62
2023-05-05T09:00:14.306Z,21.63
2023-05-05T09:02:43.001Z,21.61
2023-05-05T09:05:10.456Z,21.63
2023-05-05T09:07:38.385Z,21.66
2023-05-05T09:10:05.740Z,21.60
2023-05-05T09:12:32.795Z,21.59
2023-05-05T09:15:03.553Z,21.67
2023-05-05T09:17:30.428Z,21.65
2023-05-05T09:20:04.668Z,21.70
2023-05-05T09:22:39.122Z,21.61
2023-05-05T09:25:07.798Z,21.65
2023-05-05T09:27:52.725Z,21.67
2023-05-05T09:30:27.014Z,21.59
2023-05-05T09:32:55.242Z,21.65
2023-05-05T09:35:23.307Z,21.61
2023-05-05T09:37:49.920Z,21.60
2023-05-05T09:40:19.072Z,21.61
2023-05-05T09:42:45.983Z,21.60
2023-05-05T09:45:18.483Z,21.60
2023-05-05T09:47:48.790Z,21.54
2023-05-05T09:50:18.617Z,21.59
2023-05-05T09:52:56.171Z,21.59
2023-05-05T09:55:24.095Z,21.50
2023-05-05T09:57:51.139Z,21.55
2023-05-05T10:00:18.216Z,21.53
2023-05-05T10:02:45.473Z,21.52
2023-05-05T10:05:13.757Z,21.51
2023-05-05T10:07:42.354Z,21.56
2023-05-05T10:10:14.822Z,21.53
2023-05-05T10:12:42.213Z,21.52
2023-05-05T10:15:10.854Z,21.58
2023-05-05T10:17:57.810Z,21.59
2023-05-05T10:20:33.389Z,21.53
2023-05-05T10:23:05.297Z,21.54
2023-05-05T10:25:39.174Z,21.59
2023-05-05T10:28:07.600Z,21.57
2023-05-05T10:30:40.595Z,21.59
2023-05-05T10:33:30.873Z,21.59
2023-05-05T10:36:01.597Z,21.56
2023-05-05T10:38:33.734Z,21.59
2023-05-05T10:41:01.581Z,21.60
2023-05-05T10:43:29.676Z,21.59
2023-05-05T10:45:57.064Z,21.58
2023-05-05T10:48:56.662Z,21.59
2023-05-05T10:51:38.694Z,21.60
2023-05-05T10:54:13.896Z,21.53
2023-05-05T10:56:42.137Z,21.55
2023-05-05T10:59:39.581Z,21.55
2023-05-05T11:02:28.466Z,21.53
2023-05-05T11:05:18.408Z,21.49
2023-05-05T11:07:46.541Z,21.50
2023-05-05T11:10:15.036Z,21.47
2023-05-05T11:12:59.260Z,21.49
2023-05-05T11:15:31.716Z,21.47
2023-05-05T11:17:59.883Z,21.43
2023-05-05T11:20:35.908Z,21.48
2023-05-05T11:23:02.445Z,21.49
2023-05-05T11:25:39.092Z,21.49
2023-05-05T11:28:08.517Z,21.50
2023-05-05T11:30:36.675Z,21.51
2023-05-05T11:33:38.271Z,21.51
2023-05-05T11:36:13.231Z,21.48
2023-05-05T11:39:05.389Z,21.51
2023-05-05T11:42:13.792Z,21.51
2023-05-05T11:44:41.681Z,21.47
2023-05-05T11:47:08.195Z,21.52
2023-05-05T11:49:39.331Z,21.52
2023-05-05T11:52:11.209Z,21.51
2023-05-05T11:54:52.280Z,21.48
2023-05-05T11:57:27.050Z,21.49
2023-05-05T12:00:02.057Z,21.53
2023-05-05T12:02:29.961Z,21.50
2023-05-05T12:04:59.543Z,21.46
2023-05-05T12:07:28.654Z,21.51
2023-05-05T12:09:55.430Z,21.49
2023-05-05T12:12:34.976Z,21.51
2023-05-05T12:15:01.830Z,21.52
2023-05-05T12:17:37.628Z,21.52
2023-05-05T12:20:04.555Z,21.51
2023-05-05T12:22:31.128Z,21.46
2023-05-05T12:25:06.474Z,21.44
2023-05-05T12:27:33.413Z,21.46
2023-05-05T12:30:17.523Z,21.51
2023-05-05T12:32:45.324Z,21.47
2023-05-05T12:35:12.857Z,21.49
2023-05-05T12:37:39.863Z,21.49
2023-05-05T12:40:08.842Z,21.50
2023-05-05T12:42:39.428Z,21.52
2023-05-05T12:45:16.074Z,21.52
2023-05-05T12:47:44.088Z,21.54
2023-05-05T12:50:11.125Z,21.54
2023-05-05T12:52:43.064Z,21.55
2023-05-05T12:55:11.252Z,21.57
2023-05-05T12:57:38.397Z,21.54
2023-05-05T13:00:16.238Z,21.57
2023-05-05T13:02:42.933Z,21.56
2023-05-05T13:05:10.157Z,21.56
2023-05-05T13:07:49.690Z,21.55
2023-05-05T13:10:16.313Z,21.58
2023-05-05T13:12:42.907Z,21.53
2023-05-05T13:15:10.309Z,21.60
2023-05-05T13:17:37.170Z,21.57
2023-05-05T13:20:04.017Z,21.59
2023-05-05T13:22:30.776Z,21.59
2023-05-05T13:24:57.340Z,21.59
2023-05-05T13:27:23.948Z,21.61
2023-05-05T13:29:50.648Z,21.63
2023-05-05T13:32:17.202Z,21.60
2023-05-05T13:34:44.231Z,21.61
2023-05-05T13:37:10.834Z,21.62
2023-05-05T13:39:37.439Z,21.62
2023-05-05T13:42:04.209Z,21.62
2023-05-05T13:44:31.440Z,21.57
2023-05-05T13:46:58.195Z,21.59
2023-05-05T13:49:24.922Z,21.59
2023-05-05T13:51:51.484Z,21.57
2023-05-05T13:54:18.020Z,21.58
2023-05-05T13:56:44.618Z,21.57
2023-05-05T13:59:11.156Z,21.59
2023-05-05T14:01:38.048Z,21.59
2023-05-05T14:04:05.903Z,21.59
2023-05-05T14:06:33.837Z,21.58
2023-05-05T14:09:00.605Z,21.61
2023-05-05T14:11:27.430Z,21.56
2023-05-05T14:13:54.135Z,21.54
2023-05-05T14:16:20.750Z,21.59
2023-05-05T14:18:47.355Z,21.56
2023-05-05T14:21:14.059Z,21.58
2023-05-05T14:23:40.797Z,21.56
2023-05-05T14:26:08.990Z,21.57
2023-05-05T14:28:35.901Z,21.50
2023-05-05T14:31:02.493Z,21.51
2023-05-05T14:33:29.049Z,21.52
2023-05-05T14:35:55.724Z,21.51
2023-05-05T14:38:22.427Z,21.52
2023-05-05T14:40:49.082Z,21.49
2023-05-05T14:43:15.689Z,21.49
2023-05-05T14:45:42.337Z,21.51
2023-05-05T14:48:09.059Z,21.49
2023-05-05T14:50:35.621Z,21.49
2023-05-05T14:53:02.269Z,21.46
2023-05-05T14:55:28.869Z,21.50
2023-05-05T14:57:55.447Z,21.49
2023-05-05T15:00:22.051Z,21.51
2023-05-05T15:02:49.054Z,21.49
2023-05-05T15:05:15.766Z,21.50
2023-05-05T15:07:42.341Z,21.47
2023-05-05T15:10:09.293Z,21.51
2023-05-05T15:12:35.913Z,21.50
2023-05-05T15:15:02.532Z,21.51
2023-05-05T15:17:30.812Z,21.54
2023-05-05T15:19:57.557Z,21.54
2023-05-05T15:22:24.227Z,21.56
2023-05-05T15:24:50.946Z,21.55
2023-05-05T15:27:18.297Z,21.59
2023-05-05T15:29:45.067Z,21.55
2023-05-05T15:32:11.777Z,21.56
2023-05-05T15:34:38.467Z,21.53
2023-05-05T15:37:05.219Z,21.57
2023-05-05T15:39:31.830Z,21.56
2023-05-05T15:42:02.734Z,21.53
2023-05-05T15:44:30.110Z,21.53
2023-05-05T15:46:56.747Z,21.50
2023-05-05T15:49:23.290Z,21.55
2023-05-05T15:51:49.900Z,21.54
2023-05-05T15:54:16.430Z,21.53
2023-05-05T15:56:43.047Z,21.50
2023-05-05T15:59:09.572Z,21.52
2023-05-05T16:01:36.419Z,21.55
2023-05-05T16:04:03.625Z,21.51
2023-05-05T16:06:30.469Z,21.51
2023-05-05T16:08:58.571Z,21.54
2023-05-05T16:11:26.177Z,21.57
2023-05-05T16:13:53.157Z,21.59
2023-05-05T16:16:19.746Z,21.58
2023-05-05T16:18:46.402Z,21.61
2023-05-05T16:21:13.202Z,21.62
2023-05-05T16:23:39.932Z,21.60
2023-05-05T16:26:06.493Z,21.61
2023-05-05T16:28:34.333Z,21.54
2023-05-05T16:31:01.799Z,21.69
2023-05-05T16:33:28.792Z,21.69
2023-05-05T16:35:55.946Z,21.68
2023-05-05T16:38:22.836Z,21.73
2023-05-05T16:40:49.632Z,21.73
2023-05-05T16:43:16.443Z,21.73
2023-05-05T16:45:43.514Z,21.73
2023-05-05T16:48:10.172Z,21.76
2023-05-05T16:50:36.706Z,21.69
2023-05-05T16:53:03.290Z,21.75
2023-05-05T16:55:29.878Z,21.77
2023-05-05T16:57:56.547Z,21.75
2023-05-05T17:00:23.123Z,21.77
2023-05-05T17:02:50.164Z,21.77
2023-05-05T17:05:17.706Z,21.77
2023-05-05T17:07:44.598Z,21.82
2023-05-05T17:10:11.229Z,21.79
2023-05-05T17:12:37.926Z,21.81
2023-05-05T17:15:05.006Z,21.84
2023-05-05T17:17:31.737Z,21.84
2023-05-05T17:19:58.749Z,21.84
2023-05-05T17:22:25.375Z,21.83
2023-05-05T17:24:51.948Z,21.87
2023-05-05T17:27:18.522Z,21.87
2023-05-05T17:29:45.078Z,21.85
2023-05-05T17:32:11.892Z,21.86
2023-05-05T17:34:38.628Z,21.89
2023-05-05T17:37:05.271Z,21.89
2023-05-05T17:39:31.853Z,21.92
2023-05-05T17:41:58.394Z,21.93
2023-05-05T17:44:24.903Z,21.92
2023-05-05T17:46:51.445Z,21.93
2023-05-05T17:49:18.049Z,21.90
2023-05-05T17:51:44.689Z,21.96
2023-05-05T17:54:11.551Z,21.95
2023-05-05T17:56:38.158Z,21.94
2023-05-05T17:59:04.747Z,21.93
2023-05-05T18:01:31.307Z,21.92
2023-05-05T18:03:57.899Z,21.96
2023-05-05T18:06:24.973Z,21.91
2023-05-05T18:08:51.496Z,21.91
2023-05-05T18:11:19.327Z,21.97
2023-05-05T18:13:45.944Z,21.96
2023-05-05T18:16:12.524Z,21.96
2023-05-05T18:18:41.157Z,21.96
2023-05-05T18:21:11.940Z,21.91
2023-05-05T18:23:39.750Z,21.93
2023-05-05T18:26:07.239Z,21.93
2023-05-05T18:28:33.818Z,21.93
2023-05-05T18:31:00.399Z,21.90
2023-05-05T18:33:27.070Z,21.93
2023-05-05T18:35:53.841Z,21.95
2023-05-05T18:38:21.486Z,21.92
2023-05-05T18:40:48.226Z,21.88
2023-05-05T18:43:14.851Z,21.91
2023-05-05T18:45:41.864Z,21.93
2023-05-05T18:48:08.597Z,21.89
2023-05-05T18:50:36.836Z,21.91
2023-05-05T18:53:03.493Z,21.88
2023-05-05T18:55:30.056Z,21.90
2023-05-05T18:57:56.597Z,21.87
2023-05-05T19:00:23.270Z,21.85
2023-05-05T19:02:49.888Z,21.85
2023-05-05T19:05:16.792Z,21.82
2023-05-05T19:07:43.428Z,21.80
2023-05-05T19:10:10.670Z,21.78
2023-05-05T19:12:37.306Z,21.76
2023-05-05T19:15:04.175Z,21.78
2023-05-05T19:17:30.947Z,21.78
2023-05-05T19:19:57.859Z,21.77
2023-05-05T19:22:24.495Z,21.64
2023-05-05T19:24:51.032Z,21.74
2023-05-05T19:27:17.639Z,21.73
2023-05-05T19:29:44.445Z,21.69
2023-05-05T19:32:11.167Z,21.69
2023-05-05T19:34:37.814Z,21.68
2023-05-05T19:37:04.458Z,21.68
2023-05-05T19:39:31.255Z,21.70
2023-05-05T19:41:57.846Z,21.68
2023-05-05T19:44:24.450Z,21.70
2023-05-05T19:46:52.775Z,21.65
2023-05-05T19:49:19.674Z,21.68
2023-05-05T19:51:49.585Z,21.63
2023-05-05T19:54:16.342Z,21.63
2023-05-05T19:56:43.110Z,21.65
2023-05-05T19:59:09.710Z,21.66
2023-05-05T20:01:36.457Z,21.65
2023-05-05T20:04:03.852Z,21.63
2023-05-05T20:06:30.712Z,21.55
2023-05-05T20:08:57.300Z,21.58
2023-05-05T20:11:25.983Z,21.57
2023-05-05T20:13:53.108Z,21.57
2023-05-05T20:16:20.189Z,21.57
2023-05-05T20:18:46.990Z,21.55
2023-05-05T20:21:14.414Z,21.59
2023-05-05T20:23:42.900Z,21.58
2023-05-05T20:26:09.525Z,21.59
2023-05-05T20:28:36.266Z,21.58
2023-05-05T20:31:02.906Z,21.61
2023-05-05T20:33:29.630Z,21.60
2023-05-05T20:35:56.505Z,21.59
2023-05-05T20:38:23.316Z,21.55
2023-05-05T20:40:50.579Z,21.62
2023-05-05T20:43:17.346Z,21.58
2023-05-05T20:45:44.297Z,21.61
2023-05-05T20:48:11.521Z,21.59
2023-05-05T20:50:39.388Z,21.59
2023-05-05T20:53:08.375Z,21.58
2023-05-05T20:55:35.265Z,21.56
2023-05-05T20:58:02.121Z,21.52
2023-05-05T21:00:28.777Z,21.51
2023-05-05T21:02:57.207Z,21.50
2023-05-05T21:05:24.315Z,21.45
2023-05-05T21:07:53.588Z,21.47
2023-05-05T21:10:20.854Z,21.48
2023-05-05T21:12:47.468Z,21.44
2023-05-05T21:15:14.221Z,21.41
2023-05-05T21:17:40.905Z,21.40
2023-05-05T21:20:08.702Z,21.37
2023-05-05T21:22:35.538Z,21.35
2023-05-05T21:25:17.240Z,21.37
2023-05-05T21:27:44.080Z,21.37
2023-05-05T21:30:11.447Z,21.38
2023-05-05T21:32:39.107Z,21.33
2023-05-05T21:35:07.676Z,21.35
2023-05-05T21:37:34.883Z,21.35
2023-05-05T21:40:01.466Z,21.30
2023-05-05T21:42:30.458Z,21.29
2023-05-05T21:44:57.053Z,21.29
2023-05-05T21:47:23.641Z,21.30
2023-05-05T21:49:50.317Z,21.29
2023-05-05T21:52:17.349Z,21.28
2023-05-05T21:54:43.984Z,21.28
2023-05-05T21:57:10.597Z,21.27
2023-05-05T21:59:37.323Z,21.25
2023-05-05T22:02:03.965Z,21.23
2023-05-05T22:04:30.541Z,21.20
2023-05-05T22:06:58.177Z,21.24
2023-05-05T22:09:24.997Z,21.22
2023-05-05T22:11:51.838Z,21.19
2023-05-05T22:14:18.582Z,21.17
2023-05-05T22:16:45.350Z,21.16
2023-05-05T22:19:12.006Z,21.16
2023-05-05T22:21:38.622Z,21.16
2023-05-05T22:24:07.198Z,21.14
2023-05-05T22:26:33.941Z,21.17
2023-05-05T22:29:00.765Z,21.17
2023-05-05T22:31:27.547Z,21.12
2023-05-05T22:33:54.156Z,21.10
2023-05-05T22:36:21.711Z,21.05
2023-05-05T22:38:48.504Z,21.13
2023-05-05T22:41:15.899Z,21.08
2023-05-05T22:43:42.528Z,21.08
2023-05-05T22:46:09.105Z,21.07
2023-05-05T22:48:35.958Z,21.09
2023-05-05T22:51:03.678Z,21.03
2023-05-05T22:53:30.224Z,21.03
2023-05-05T22:55:58.345Z,21.03
2023-05-05T22:58:25.746Z,21.02
2023-05-05T23:00:52.453Z,21.05
2023-05-05T23:03:19.203Z,21.01
2023-05-05T23:05:45.965Z,20.99
2023-05-05T23:08:12.598Z,21.03
2023-05-05T23:10:39.210Z,21.01
2023-05-05T23:13:06.017Z,21.01
2023-05-05T23:15:32.726Z,20.80
2023-05-05T23:17:59.342Z,20.97
2023-05-05T23:20:26.120Z,20.98
2023-05-05T23:22:52.657Z,20.98
2023-05-05T23:25:19.205Z,20.96
2023-05-05T23:27:45.775Z,20.92
2023-05-05T23:30:12.890Z,20.94
2023-05-05T23:32:39.496Z,20.94
2023-05-05T23:35:06.570Z,20.92
2023-05-05T23:37:33.192Z,20.91
2023-05-05T23:39:59.914Z,20.86
2023-05-05T23:42:26.514Z,20.90
2023-05-05T23:44:53.073Z,20.86
2023-05-05T23:47:19.700Z,20.87
2023-05-05T23:49:46.336Z,20.87
2023-05-05T23:52:12.957Z,20.84
2023-05-05T23:54:39.913Z,20.83
2023-05-05T23:57:06.591Z,20.83
2023-05-05T23:59:33.157Z,20.84
